Time;durP1;ratioP1;P1;durP2;ratioP2;P2;SDS_P1;SDS_P2;PMS_P1;PMS_P2;Temp;Humidity;BMP_temperature;BMP_pressure;BME280_temperature;BME280_humidity;BME280_pressure;Samples;Min_cycle;Max_cycle;Signal;HPM_P1;HPM_P2
2022/06/06 00:01:19;;;;;;;2.80;2.20;;;17.10;99.90;;;;;;5013907;28;20612;-52
2022/06/06 00:03:45;;;;;;;4.37;2.43;;;17.00;99.90;;;;;;5013459;28;20187;-54
2022/06/06 00:06:14;;;;;;;2.90;2.53;;;17.00;99.90;;;;;;5013739;28;20223;-53
2022/06/06 00:08:40;;;;;;;3.57;2.10;;;16.90;99.90;;;;;;5013698;28;20178;-58
2022/06/06 00:11:09;;;;;;;3.53;2.10;;;16.80;99.90;;;;;;5013736;28;20197;-54
2022/06/06 00:13:36;;;;;;;3.87;2.40;;;16.80;99.90;;;;;;5013312;28;20229;-55
2022/06/06 00:16:03;;;;;;;2.40;2.20;;;16.90;99.90;;;;;;5013599;28;20176;-52
2022/06/06 00:18:29;;;;;;;2.57;2.20;;;16.90;99.90;;;;;;5013033;28;20180;-52
2022/06/06 00:20:55;;;;;;;3.87;2.37;;;17.10;99.90;;;;;;5013355;28;20191;-55
2022/06/06 00:23:21;;;;;;;7.20;2.50;;;17.10;99.90;;;;;;5013404;28;20269;-55
2022/06/06 00:25:47;;;;;;;5.13;2.30;;;17.10;99.90;;;;;;5013258;28;20175;-57
2022/06/06 00:28:13;;;;;;;3.70;2.60;;;17.10;99.90;;;;;;5013431;28;20260;-57
2022/06/06 00:30:38;;;;;;;4.27;2.37;;;17.20;99.90;;;;;;5013242;28;20191;-54
2022/06/06 00:35:48;;;;;;;2.97;2.30;;;17.30;99.90;;;;;;5013142;28;20321;-53
2022/06/06 00:38:14;;;;;;;4.37;2.40;;;17.30;99.90;;;;;;5013233;28;20270;-51
2022/06/06 00:40:39;;;;;;;4.63;2.40;;;17.30;99.90;;;;;;5012863;28;20731;-51
2022/06/06 00:43:05;;;;;;;3.70;2.67;;;17.30;99.90;;;;;;5013083;28;20680;-52
2022/06/06 00:45:35;;;;;;;6.40;2.57;;;17.30;99.90;;;;;;5012725;28;20197;-55
2022/06/06 00:48:14;;;;;;;5.73;2.67;;;17.30;99.90;;;;;;5012924;28;20205;-54
2022/06/06 00:50:46;;;;;;;4.87;2.53;;;17.30;99.90;;;;;;5012825;28;20196;-56
2022/06/06 00:53:15;;;;;;;3.07;2.63;;;17.20;99.90;;;;;;5012909;28;20541;-55
2022/06/06 00:55:45;;;;;;;4.27;2.60;;;17.20;99.90;;;;;;5012476;28;20260;-55
2022/06/06 00:58:16;;;;;;;3.10;2.80;;;17.10;99.90;;;;;;5012857;28;20170;-56
2022/06/06 01:00:43;;;;;;;5.33;2.73;;;17.10;99.90;;;;;;5012669;28;20220;-52
2022/06/06 01:03:13;;;;;;;3.53;2.87;;;17.00;99.90;;;;;;5012576;28;20184;-56
2022/06/06 01:05:40;;;;;;;4.13;2.70;;;16.90;99.90;;;;;;5012756;28;20170;-55
2022/06/06 01:08:07;;;;;;;3.27;2.87;;;16.90;99.90;;;;;;5012743;28;20778;-53
2022/06/06 01:10:33;;;;;;;4.80;2.80;;;16.90;99.90;;;;;;5012334;28;20285;-56
2022/06/06 01:12:59;;;;;;;3.77;2.90;;;16.80;99.90;;;;;;5012852;28;20181;-55
2022/06/06 01:15:28;;;;;;;5.93;3.00;;;16.80;99.90;;;;;;5012269;28;20547;-54
2022/06/06 01:18:08;;;;;;;5.30;3.03;;;16.80;99.90;;;;;;5012476;28;20542;-53
2022/06/06 01:20:45;;;;;;;4.97;3.10;;;16.70;99.90;;;;;;5012312;28;20193;-52
2022/06/06 01:23:44;;;;;;;5.03;2.97;;;16.70;99.90;;;;;;5012308;28;20299;-57
2022/06/06 01:26:19;;;;;;;5.20;3.50;;;16.80;99.90;;;;;;5012271;28;20161;-55
2022/06/06 01:28:56;;;;;;;4.97;3.10;;;16.80;99.90;;;;;;5012266;28;20173;-53
2022/06/06 01:31:25;;;;;;;4.93;3.20;;;16.70;99.90;;;;;;5012149;28;20695;-54
2022/06/06 01:33:53;;;;;;;4.03;3.20;;;16.80;99.90;;;;;;5011934;28;20177;-55
2022/06/06 01:36:19;;;;;;;4.93;3.50;;;16.80;99.90;;;;;;5012054;28;20250;-50
2022/06/06 01:38:46;;;;;;;5.70;3.50;;;16.80;99.90;;;;;;5012130;28;20173;-52
2022/06/06 01:41:15;;;;;;;5.40;3.33;;;16.80;99.90;;;;;;5011926;28;20219;-51
2022/06/06 01:43:50;;;;;;;4.57;3.50;;;16.80;99.90;;;;;;5011378;28;20202;-54
2022/06/06 01:46:26;;;;;;;6.53;3.90;;;16.80;99.90;;;;;;5012353;28;20180;-57
2022/06/06 01:48:53;;;;;;;6.87;3.67;;;16.80;99.90;;;;;;5011910;28;20215;-54
2022/06/06 01:51:22;;;;;;;5.87;3.77;;;16.90;99.90;;;;;;5011837;28;20331;-57
2022/06/06 01:53:48;;;;;;;5.20;3.67;;;17.00;99.90;;;;;;5011593;28;20573;-53
2022/06/06 01:56:19;;;;;;;5.10;4.17;;;17.00;99.90;;;;;;5011777;28;20177;-55
2022/06/06 01:58:45;;;;;;;5.77;4.00;;;17.20;99.90;;;;;;5012009;28;20184;-55
2022/06/06 02:01:11;;;;;;;7.37;4.63;;;17.20;99.90;;;;;;5011563;28;20252;-56
2022/06/06 02:03:36;;;;;;;4.67;4.00;;;17.10;99.90;;;;;;5011437;28;20277;-52
2022/06/06 02:06:03;;;;;;;5.17;4.07;;;17.10;99.90;;;;;;5011747;28;20171;-53
2022/06/06 02:08:31;;;;;;;4.60;4.20;;;17.00;99.90;;;;;;5011626;28;20184;-55
2022/06/06 02:10:56;;;;;;;8.53;4.83;;;17.00;99.90;;;;;;5011395;28;20282;-54
2022/06/06 02:13:22;;;;;;;7.00;5.23;;;16.90;99.90;;;;;;5011411;28;20256;-54
2022/06/06 02:15:48;;;;;;;7.20;5.10;;;16.90;99.90;;;;;;5011557;28;20184;-51
2022/06/06 02:18:13;;;;;;;6.33;4.87;;;16.80;99.90;;;;;;5011079;28;20602;-54
2022/06/06 02:20:39;;;;;;;6.00;5.00;;;16.80;99.90;;;;;;5011291;28;20199;-53
2022/06/06 02:23:06;;;;;;;5.77;4.90;;;16.80;99.90;;;;;;5011429;28;20562;-53
2022/06/06 02:25:33;;;;;;;7.57;4.87;;;16.80;99.90;;;;;;5011138;28;20256;-50
2022/06/06 02:27:59;;;;;;;5.93;4.80;;;16.80;99.90;;;;;;5011305;28;20664;-52
2022/06/06 02:30:28;;;;;;;7.47;5.30;;;16.70;99.90;;;;;;5011298;28;20188;-53
2022/06/06 02:32:54;;;;;;;6.63;5.73;;;16.80;99.90;;;;;;5011586;28;20208;-57
2022/06/06 02:35:23;;;;;;;7.83;5.53;;;16.80;99.90;;;;;;5010792;28;20236;-58
2022/06/06 02:37:49;;;;;;;8.27;5.90;;;16.80;99.90;;;;;;5011080;28;20708;-55
2022/06/06 02:40:18;;;;;;;6.80;5.27;;;16.80;99.90;;;;;;5011100;28;20211;-56
2022/06/06 02:42:44;;;;;;;7.33;5.80;;;16.70;99.90;;;;;;5011295;28;20191;-55
2022/06/06 02:45:12;;;;;;;7.53;5.70;;;16.80;99.90;;;;;;5011010;28;20260;-55
2022/06/06 02:47:38;;;;;;;7.90;5.43;;;16.80;99.90;;;;;;5011150;28;20248;-52
2022/06/06 02:50:06;;;;;;;9.10;5.77;;;16.80;99.90;;;;;;5011169;28;20300;-56
2022/06/06 02:52:33;;;;;;;8.70;5.87;;;16.80;99.90;;;;;;5011129;28;20560;-50
2022/06/06 02:54:59;;;;;;;7.57;5.87;;;16.80;99.90;;;;;;5010998;28;20180;-58
2022/06/06 02:57:26;;;;;;;7.13;5.53;;;16.80;99.90;;;;;;5011102;28;20244;-58
2022/06/06 02:59:54;;;;;;;5.60;5.00;;;16.90;99.90;;;;;;5011063;28;20533;-52
2022/06/06 03:02:19;;;;;;;6.10;5.43;;;17.00;99.90;;;;;;5011070;28;20243;-56
2022/06/06 03:04:45;;;;;;;6.13;4.83;;;17.10;99.90;;;;;;5010833;28;20235;-51
2022/06/06 03:07:39;;;;;;;8.73;5.10;;;17.10;99.90;;;;;;5010859;28;20253;-52
2022/06/06 03:10:30;;;;;;;8.10;5.67;;;17.00;99.90;;;;;;5010962;28;20660;-53
2022/06/06 03:13:22;;;;;;;7.10;6.10;;;16.90;99.90;;;;;;5011141;28;20780;-53
2022/06/06 03:22:08;;;;;;;8.33;6.60;;;16.60;99.90;;;;;;5010778;28;20243;-53
2022/06/06 03:25:02;;;;;;;7.37;6.00;;;16.50;99.90;;;;;;5010702;28;20185;-55
2022/06/06 03:27:46;;;;;;;7.60;6.13;;;16.60;99.90;;;;;;5010920;28;20499;-57
2022/06/06 03:30:37;;;;;;;9.47;6.60;;;16.70;99.90;;;;;;5011965;28;20197;-55
2022/06/06 03:33:23;;;;;;;9.23;6.90;;;16.70;99.90;;;;;;5014453;28;20208;-56
2022/06/06 03:35:49;;;;;;;6.80;5.97;;;16.80;99.90;;;;;;5014348;28;20178;-56
2022/06/06 03:38:46;;;;;;;7.57;6.73;;;16.80;99.90;;;;;;5029410;28;20180;-53
2022/06/06 03:41:15;;;;;;;7.57;6.80;;;16.70;99.90;;;;;;5072231;22;20242;-53
2022/06/06 03:43:59;;;;;;;9.23;6.80;;;16.70;99.90;;;;;;5027328;28;20216;-53
2022/06/06 03:46:59;;;;;;;6.90;6.30;;;16.90;99.90;;;;;;5043291;28;20545;-51
2022/06/06 03:49:46;;;;;;;9.83;6.57;;;16.90;99.90;;;;;;4992254;28;20288;-51
2022/06/06 03:52:24;;;;;;;8.47;7.03;;;17.00;99.90;;;;;;4970387;28;20204;-49
2022/06/06 03:55:09;;;;;;;8.33;6.57;;;17.00;99.90;;;;;;4972885;28;20711;-52
2022/06/06 03:57:36;;;;;;;8.80;6.23;;;17.00;99.90;;;;;;4972905;28;20224;-52
2022/06/06 04:00:12;;;;;;;6.70;6.03;;;17.00;99.90;;;;;;4971435;28;20664;-52
2022/06/06 04:02:38;;;;;;;8.03;5.83;;;16.90;99.90;;;;;;4972369;28;20248;-52
2022/06/06 04:05:13;;;;;;;7.10;6.30;;;16.90;99.90;;;;;;4972405;28;20182;-48
2022/06/06 04:07:39;;;;;;;7.07;6.37;;;16.90;99.90;;;;;;4972659;28;20196;-52
2022/06/06 04:10:07;;;;;;;7.97;6.43;;;16.80;99.90;;;;;;4972404;28;20299;-51
2022/06/06 04:12:53;;;;;;;6.37;5.77;;;16.90;99.90;;;;;;4972683;28;20215;-51
2022/06/06 04:15:21;;;;;;;10.53;5.57;;;16.90;99.90;;;;;;4970255;28;20657;-51
2022/06/06 04:17:59;;;;;;;6.43;5.77;;;16.90;99.90;;;;;;4966948;28;20199;-53
2022/06/06 04:20:42;;;;;;;7.67;5.50;;;17.10;99.90;;;;;;4972369;28;20335;-55
2022/06/06 04:23:37;;;;;;;8.10;5.43;;;17.20;99.90;;;;;;4972602;28;20251;-50
2022/06/06 04:26:11;;;;;;;6.17;5.57;;;17.20;99.90;;;;;;4996712;28;20190;-53
2022/06/06 04:29:12;;;;;;;6.50;5.20;;;17.20;99.90;;;;;;5013778;28;20166;-51
2022/06/06 04:31:55;;;;;;;6.17;5.43;;;17.20;99.90;;;;;;5014112;28;20741;-50
2022/06/06 04:34:56;;;;;;;6.20;5.47;;;17.10;99.90;;;;;;5013816;28;20236;-54
2022/06/06 04:37:39;;;;;;;7.40;5.47;;;17.10;99.90;;;;;;5013646;28;20179;-52
2022/06/06 04:40:37;;;;;;;7.47;5.27;;;17.10;99.90;;;;;;5013756;28;20180;-49
2022/06/06 04:43:11;;;;;;;5.90;5.00;;;17.00;99.90;;;;;;5013559;28;20214;-53
2022/06/06 04:45:53;;;;;;;6.83;4.57;;;16.90;99.90;;;;;;5013396;28;20538;-52
2022/06/06 04:48:21;;;;;;;5.10;4.60;;;16.90;99.90;;;;;;5013548;28;20180;-52
2022/06/06 04:50:47;;;;;;;6.00;4.63;;;16.90;99.90;;;;;;5013186;28;20223;-51
2022/06/06 04:53:19;;;;;;;7.30;4.63;;;16.90;99.90;;;;;;5013350;28;20653;-54
2022/06/06 04:55:47;;;;;;;5.67;4.30;;;16.80;99.90;;;;;;5013050;28;20173;-51
2022/06/06 04:58:15;;;;;;;6.73;4.50;;;16.80;99.90;;;;;;5013387;28;20196;-49
2022/06/06 05:00:42;;;;;;;5.57;4.90;;;16.80;99.90;;;;;;5013306;28;20204;-50
2022/06/06 05:03:08;;;;;;;6.33;5.00;;;16.80;99.90;;;;;;5013440;28;20616;-53
2022/06/06 05:05:55;;;;;;;6.20;4.30;;;16.80;99.90;;;;;;5012841;28;20204;-53
2022/06/06 05:08:38;;;;;;;6.93;4.80;;;16.80;99.90;;;;;;5012985;28;20211;-51
2022/06/06 05:11:20;;;;;;;6.70;4.47;;;16.80;99.90;;;;;;5012986;28;20204;-52
2022/06/06 05:14:07;;;;;;;7.47;4.87;;;16.80;99.90;;;;;;5012760;28;20184;-51
2022/06/06 05:16:55;;;;;;;5.27;4.47;;;16.80;99.90;;;;;;5012993;28;20204;-51
2022/06/06 05:19:39;;;;;;;6.87;4.63;;;16.90;99.90;;;;;;5013191;28;20587;-50
2022/06/06 05:22:32;;;;;;;4.67;4.20;;;17.00;99.90;;;;;;5012836;28;20208;-54
2022/06/06 05:25:02;;;;;;;5.70;4.30;;;17.00;99.90;;;;;;5012197;28;20182;-53
2022/06/06 05:27:46;;;;;;;4.93;4.43;;;17.00;99.90;;;;;;5012547;28;20179;-50
2022/06/06 05:30:25;;;;;;;6.10;4.53;;;17.10;99.90;;;;;;5012911;28;20622;-50
2022/06/06 05:33:05;;;;;;;6.30;4.80;;;17.20;99.90;;;;;;5012879;28;20206;-52
2022/06/06 05:35:46;;;;;;;5.20;4.30;;;17.40;99.90;;;;;;5012524;28;20170;-52
2022/06/06 05:38:21;;;;;;;4.80;4.30;;;17.50;99.90;;;;;;5012857;28;20216;-50
2022/06/06 05:41:16;;;;;;;5.33;4.60;;;17.70;99.90;;;;;;5012476;28;20233;-50
2022/06/06 05:43:50;;;;;;;5.33;4.13;;;18.00;99.90;;;;;;5012265;28;20269;-49
2022/06/06 05:46:34;;;;;;;5.80;4.30;;;18.10;99.90;;;;;;5012643;28;20173;-52
2022/06/06 05:49:13;;;;;;;6.00;4.47;;;18.10;99.90;;;;;;5012600;28;20175;-51
2022/06/06 05:51:44;;;;;;;5.73;4.20;;;18.00;99.90;;;;;;5012541;28;20195;-50
2022/06/06 05:54:27;;;;;;;5.37;4.00;;;17.80;99.90;;;;;;5011521;28;20172;-53
2022/06/06 05:57:07;;;;;;;4.80;4.40;;;17.90;99.90;;;;;;5012523;28;20172;-53
2022/06/06 06:00:16;;;;;;;5.20;4.23;;;17.80;99.90;;;;;;5011959;28;20658;-48
2022/06/06 06:03:03;;;;;;;4.20;3.90;;;17.80;99.90;;;;;;5012082;28;20220;-51
2022/06/06 06:05:56;;;;;;;5.13;4.63;;;17.80;99.90;;;;;;5012066;28;20164;-55
2022/06/06 06:08:50;;;;;;;7.00;4.87;;;17.90;99.90;;;;;;5012434;28;20590;-50
2022/06/06 06:11:19;;;;;;;5.53;4.40;;;18.00;99.90;;;;;;5012109;28;20185;-49
2022/06/06 06:13:47;;;;;;;4.60;4.20;;;18.10;99.90;;;;;;5011914;28;20263;-49
2022/06/06 06:16:15;;;;;;;6.03;4.60;;;18.30;99.90;;;;;;5012252;28;20705;-53
2022/06/06 06:18:47;;;;;;;4.90;4.23;;;18.60;99.90;;;;;;5012197;28;20646;-51
2022/06/06 06:21:23;;;;;;;5.00;4.50;;;18.70;99.90;;;;;;5011871;28;20227;-49
2022/06/06 06:24:01;;;;;;;5.93;4.60;;;18.80;99.90;;;;;;5011873;28;20185;-51
2022/06/06 06:26:30;;;;;;;6.20;5.00;;;18.90;99.90;;;;;;5012066;28;20163;-53
2022/06/06 06:29:01;;;;;;;5.77;5.27;;;19.00;99.90;;;;;;5011979;28;20677;-50
2022/06/06 06:31:59;;;;;;;6.37;5.20;;;18.90;99.90;;;;;;5012004;28;20275;-53
2022/06/06 06:34:29;;;;;;;4.90;4.40;;;18.80;99.90;;;;;;4989387;28;20764;-48
2022/06/06 06:37:07;;;;;;;4.90;4.50;;;18.60;99.90;;;;;;4961632;28;20709;-52
2022/06/06 06:40:06;;;;;;;5.77;5.17;;;18.80;99.90;;;;;;4950681;29;20261;-54
2022/06/06 06:42:37;;;;;;;5.27;4.77;;;18.80;99.90;;;;;;4950304;29;20806;-50
2022/06/06 06:45:12;;;;;;;5.10;4.63;;;19.00;99.90;;;;;;4954541;28;20190;-51
2022/06/06 06:47:37;;;;;;;5.27;4.77;;;19.00;99.90;;;;;;4967252;28;20765;-52
2022/06/06 06:50:29;;;;;;;6.43;4.77;;;19.10;99.90;;;;;;4964574;28;20198;-49
2022/06/06 06:53:24;;;;;;;6.43;4.63;;;19.10;99.90;;;;;;4960192;28;20312;-49
2022/06/06 06:56:06;;;;;;;5.30;4.80;;;19.10;99.90;;;;;;4961320;28;20193;-52
2022/06/06 06:58:40;;;;;;;5.80;4.50;;;19.20;99.90;;;;;;4966408;28;20210;-54
2022/06/06 07:01:07;;;;;;;5.80;4.47;;;19.40;99.90;;;;;;4960568;28;20210;-51
2022/06/06 07:10:09;;;;;;;4.83;3.67;;;19.80;99.90;;;;;;4986619;28;20549;-55
2022/06/06 07:12:53;;;;;;;3.77;3.47;;;20.00;99.90;;;;;;5014147;28;20191;-57
2022/06/06 07:15:43;;;;;;;6.90;3.80;;;19.80;99.90;;;;;;5007528;28;20211;-50
2022/06/06 07:18:13;;;;;;;5.77;3.83;;;19.50;99.90;;;;;;5008902;28;20168;-53
2022/06/06 07:20:41;;;;;;;7.40;3.83;;;19.40;99.90;;;;;;5003709;28;20177;-50
2022/06/06 07:23:11;;;;;;;4.43;3.63;;;19.40;99.90;;;;;;5008958;28;20694;-54
2022/06/06 07:25:39;;;;;;;4.27;3.87;;;19.30;99.90;;;;;;5003934;28;20185;-54
2022/06/06 07:28:11;;;;;;;3.10;2.90;;;19.50;99.90;;;;;;5009780;28;20172;-54
2022/06/06 07:31:06;;;;;;;3.90;3.50;;;19.70;99.90;;;;;;5004723;28;20205;-52
2022/06/06 07:34:00;;;;;;;4.33;3.50;;;19.80;99.90;;;;;;5005031;28;20176;-55
2022/06/06 07:36:56;;;;;;;5.22;3.63;;;20.10;99.90;;;;;;5004597;28;20188;-50
2022/06/06 07:39:55;;;;;;;3.60;3.30;;;20.50;99.90;;;;;;5005141;28;20181;-52
2022/06/06 07:43:00;;;;;;;3.83;3.53;;;20.70;99.90;;;;;;5009678;28;20298;-46
2022/06/06 07:45:45;;;;;;;3.90;3.50;;;20.80;99.90;;;;;;4928154;29;20267;-46
2022/06/06 07:48:44;;;;;;;4.68;2.92;;;20.90;99.90;;;;;;4927918;29;20694;-46
2022/06/06 07:51:39;;;;;;;3.80;3.50;;;20.80;99.90;;;;;;4928188;29;20349;-51
2022/06/06 07:54:18;;;;;;;4.90;3.33;;;20.40;99.90;;;;;;4916453;29;20192;-55
2022/06/06 07:57:09;;;;;;;4.35;3.60;;;20.10;99.90;;;;;;4931718;29;20262;-58
2022/06/06 08:00:03;;;;;;;4.00;3.55;;;20.00;99.90;;;;;;4927749;29;20179;-52
2022/06/06 08:02:42;;;;;;;5.55;3.50;;;20.00;99.90;;;;;;4926139;29;20216;-54
2022/06/06 08:05:38;;;;;;;3.63;3.33;;;20.10;99.90;;;;;;4922855;29;20194;-55
2022/06/06 08:08:37;;;;;;;3.40;3.10;;;20.30;99.90;;;;;;4926040;29;20184;-53
2022/06/06 08:11:47;;;;;;;4.18;3.15;;;20.50;99.90;;;;;;4927371;29;20196;-55
2022/06/06 08:14:27;;;;;;;3.40;3.10;;;20.70;99.90;;;;;;4928644;29;20194;-54
2022/06/06 08:16:58;;;;;;;4.72;3.00;;;20.70;99.90;;;;;;4931753;28;20721;-58
2022/06/06 08:19:47;;;;;;;3.15;2.85;;;20.50;99.90;;;;;;4924995;29;20168;-57
2022/06/06 08:22:13;;;;;;;4.38;2.90;;;20.60;99.90;;;;;;4994533;28;20213;-49
2022/06/06 08:24:45;;;;;;;4.20;3.20;;;20.60;99.90;;;;;;5006315;28;20253;-54
2022/06/06 08:27:14;;;;;;;4.75;3.40;;;20.70;99.90;;;;;;5007853;28;20186;-52
2022/06/06 08:29:41;;;;;;;3.45;2.88;;;21.00;99.90;;;;;;5012251;28;20578;-51
2022/06/06 08:32:07;;;;;;;5.35;3.35;;;21.00;99.90;;;;;;5012368;28;20534;-51
2022/06/06 08:34:34;;;;;;;4.05;3.10;;;21.00;99.90;;;;;;5013373;28;20673;-52
2022/06/06 08:37:24;;;;;;;3.58;2.85;;;21.10;99.90;;;;;;5012860;28;20183;-51
2022/06/06 08:40:12;;;;;;;4.45;3.05;;;21.10;99.90;;;;;;5013018;28;20196;-50
2022/06/06 08:42:47;;;;;;;3.38;3.00;;;21.40;99.90;;;;;;5013110;28;20674;-52
2022/06/06 08:45:15;;;;;;;4.32;2.83;;;21.70;99.90;;;;;;5012959;28;20160;-55
2022/06/06 08:48:25;;;;;;;3.38;2.67;;;22.00;99.90;;;;;;5012804;28;20242;-56
2022/06/06 08:50:59;;;;;;;3.88;2.92;;;22.30;99.90;;;;;;4933260;29;20203;-55
2022/06/06 08:53:52;;;;;;;3.60;2.70;;;22.60;99.90;;;;;;4932995;29;20187;-51
2022/06/06 08:56:42;;;;;;;3.05;2.78;;;22.50;99.90;;;;;;4989113;28;20674;-56
2022/06/06 08:59:47;;;;;;;3.63;2.70;;;22.30;99.90;;;;;;5011203;28;20189;-54
2022/06/06 09:02:31;;;;;;;2.97;2.67;;;21.90;99.90;;;;;;5006662;28;20287;-55
2022/06/06 09:04:56;;;;;;;3.30;2.70;;;21.80;99.90;;;;;;5005437;28;20185;-52
2022/06/06 09:07:52;;;;;;;3.75;2.70;;;21.80;99.90;;;;;;5002516;28;20173;-59
2022/06/06 09:10:38;;;;;;;4.60;2.70;;;21.90;99.90;;;;;;5005149;28;20654;-56
2022/06/06 09:13:04;;;;;;;3.05;2.80;;;22.30;99.90;;;;;;5005390;28;20201;-56
2022/06/06 09:15:48;;;;;;;4.40;2.75;;;22.70;99.90;;;;;;5007849;28;20170;-53
2022/06/06 09:18:33;;;;;;;3.80;2.72;;;22.80;99.90;;;;;;5005825;28;20169;-49
2022/06/06 09:21:05;;;;;;;3.10;2.90;;;22.90;99.90;;;;;;5010429;28;20629;-52
2022/06/06 09:24:03;;;;;;;2.97;2.70;;;22.70;99.90;;;;;;5011950;28;20204;-50
2022/06/06 09:26:50;;;;;;;6.50;2.80;;;22.70;99.90;;;;;;4998098;28;20296;-49
2022/06/06 09:29:40;;;;;;;4.43;2.80;;;21.50;99.90;;;;;;5011484;28;20222;-55
2022/06/06 09:32:08;;;;;;;3.63;2.83;;;22.80;99.90;;;;;;5008840;28;20561;-55
2022/06/06 09:35:02;;;;;;;4.10;2.90;;;23.10;99.90;;;;;;5002504;28;20278;-54
2022/06/06 09:37:37;;;;;;;3.00;2.80;;;23.30;99.90;;;;;;5005532;28;20181;-53
2022/06/06 09:40:51;;;;;;;4.15;2.75;;;23.40;99.90;;;;;;5008877;28;20226;-52
2022/06/06 09:43:48;;;;;;;3.40;2.50;;;23.70;99.90;;;;;;4969395;28;20222;-54
2022/06/06 09:46:52;;;;;;;3.25;2.80;;;23.50;99.90;;;;;;4978103;28;20242;-50
2022/06/06 09:49:41;;;;;;;3.45;2.78;;;23.10;99.90;;;;;;5022946;28;20320;-51
2022/06/06 09:52:12;;;;;;;3.38;2.97;;;22.60;99.90;;;;;;5031380;28;20188;-49
2022/06/06 10:01:08;;;;;;;3.42;3.00;;;22.40;99.90;;;;;;4992112;28;20250;-54
2022/06/06 10:03:52;;;;;;;3.47;2.78;;;22.30;99.90;;;;;;4991726;28;20606;-52
2022/06/06 10:06:42;;;;;;;4.30;2.50;;;22.40;99.90;;;;;;4991178;28;20657;-52
2022/06/06 10:09:29;;;;;;;4.90;3.25;;;22.70;99.90;;;;;;4991910;28;20272;-53
2022/06/06 10:12:12;;;;;;;4.38;3.13;;;22.80;99.90;;;;;;4991842;28;20189;-54
2022/06/06 10:14:52;;;;;;;3.85;2.72;;;23.10;99.90;;;;;;4991393;28;20161;-51
2022/06/06 10:17:30;;;;;;;2.80;2.60;;;23.20;99.90;;;;;;4991823;28;20169;-48
2022/06/06 10:20:33;;;;;;;3.78;2.90;;;23.10;99.90;;;;;;4991808;28;20161;-53
2022/06/06 10:23:08;;;;;;;3.00;2.65;;;23.20;99.90;;;;;;4991540;28;20205;-54
2022/06/06 10:26:11;;;;;;;3.05;2.60;;;23.50;99.90;;;;;;4991439;28;20162;-53
2022/06/06 10:28:43;;;;;;;3.00;2.67;;;23.50;99.90;;;;;;4991767;28;20639;-51
2022/06/06 10:31:23;;;;;;;3.15;2.67;;;23.90;99.90;;;;;;4991578;28;20276;-52
2022/06/06 10:34:10;;;;;;;2.70;2.50;;;24.10;99.90;;;;;;4991472;28;20188;-54
2022/06/06 10:37:10;;;;;;;4.18;2.53;;;24.30;99.90;;;;;;4991638;28;20201;-56
2022/06/06 10:39:45;;;;;;;2.60;2.40;;;24.20;99.90;;;;;;4993744;28;20505;-50
2022/06/06 10:42:39;;;;;;;2.95;2.10;;;24.90;99.90;;;;;;4995485;28;20302;-49
2022/06/06 10:45:34;;;;;;;2.40;2.20;;;23.70;99.90;;;;;;4995403;28;20173;-54
2022/06/06 10:48:15;;;;;;;2.80;2.53;;;23.80;99.90;;;;;;4995583;28;20166;-53
2022/06/06 10:53:49;;;;;;;2.60;2.20;;;24.10;99.90;;;;;;4995266;28;20185;-52
2022/06/06 10:56:32;;;;;;;3.13;2.65;;;24.30;99.90;;;;;;4995442;28;20177;-53
2022/06/06 10:59:29;;;;;;;2.30;2.05;;;24.40;99.90;;;;;;4995393;28;20224;-53
2022/06/06 11:02:18;;;;;;;2.53;2.30;;;24.50;99.90;;;;;;4995217;28;20289;-56
2022/06/06 11:05:03;;;;;;;2.47;2.28;;;24.50;99.90;;;;;;4995048;28;20252;-55
2022/06/06 11:08:11;;;;;;;5.57;2.67;;;24.10;99.90;;;;;;4995294;28;20252;-52
2022/06/06 11:11:04;;;;;;;2.30;2.03;;;24.00;99.90;;;;;;4995223;28;20611;-52
2022/06/06 11:13:56;;;;;;;2.47;2.13;;;24.00;99.90;;;;;;4994933;28;20699;-51
2022/06/06 11:16:29;;;;;;;2.75;2.35;;;24.10;99.90;;;;;;4995064;28;20158;-53
2022/06/06 11:19:06;;;;;;;2.28;2.08;;;24.40;99.90;;;;;;4994896;28;20170;-55
2022/06/06 11:21:59;;;;;;;2.17;1.98;;;24.70;99.90;;;;;;4994935;28;20189;-56
2022/06/06 11:24:32;;;;;;;3.08;2.35;;;25.10;99.90;;;;;;4994640;28;20173;-55
2022/06/06 11:27:37;;;;;;;2.80;2.25;;;25.10;99.90;;;;;;4994878;28;20170;-55
2022/06/06 11:30:21;;;;;;;6.43;2.30;;;25.00;99.90;;;;;;4983180;28;20531;-49
2022/06/06 11:32:52;;;;;;;2.70;2.40;;;24.80;99.90;;;;;;4994775;28;20247;-51
2022/06/06 11:35:29;;;;;;;2.33;2.10;;;24.30;99.90;;;;;;4994519;28;20554;-51
2022/06/06 11:38:34;;;;;;;2.50;2.30;;;24.20;99.90;;;;;;4994790;28;20188;-50
2022/06/06 11:41:22;;;;;;;2.30;2.20;;;24.20;99.90;;;;;;4994796;28;20609;-55
2022/06/06 11:44:33;;;;;;;2.08;1.98;;;24.30;99.90;;;;;;4994296;28;20211;-55
2022/06/06 11:47:17;;;;;;;2.40;2.20;;;24.40;99.90;;;;;;4994965;28;20619;-54
2022/06/06 11:49:51;;;;;;;4.82;2.47;;;24.60;99.90;;;;;;4994305;28;20641;-56
2022/06/06 11:53:14;;;;;;;2.67;2.33;;;24.80;99.90;;;;;;4993580;28;20327;-55
2022/06/06 11:56:20;;;;;;;2.33;2.15;;;25.00;99.90;;;;;;4953090;29;20167;-53
2022/06/06 11:59:11;;;;;;;2.63;2.40;;;25.50;99.90;;;;;;4896196;29;20236;-55
2022/06/06 12:01:54;;;;;;;3.70;2.22;;;26.10;99.90;;;;;;4953236;29;20206;-54
2022/06/06 12:04:41;;;;;;;3.17;2.40;;;26.20;99.90;;;;;;4952863;29;20709;-55
2022/06/06 12:07:12;;;;;;;2.53;2.33;;;26.20;99.90;;;;;;4953081;29;20253;-52
2022/06/06 12:10:22;;;;;;;2.42;2.22;;;25.70;99.90;;;;;;4952981;29;20174;-56
2022/06/06 12:13:33;;;;;;;4.03;2.47;;;25.50;99.90;;;;;;4950439;29;20238;-57
2022/06/06 12:16:15;;;;;;;2.30;2.10;;;25.60;99.90;;;;;;4953382;29;20163;-56
2022/06/06 12:18:58;;;;;;;2.40;2.20;;;25.80;99.90;;;;;;4953223;29;20290;-56
2022/06/06 12:21:35;;;;;;;4.07;2.20;;;26.20;99.90;;;;;;4953235;29;20227;-52
2022/06/06 12:24:28;;;;;;;2.92;2.10;;;26.40;99.90;;;;;;4952811;29;20249;-56
2022/06/06 12:27:26;;;;;;;4.35;2.30;;;26.30;99.90;;;;;;4986430;28;20276;-55
2022/06/06 12:30:19;;;;;;;1.80;1.70;;;26.30;99.90;;;;;;4994056;28;20158;-57
2022/06/06 12:32:54;;;;;;;2.28;2.10;;;26.10;99.90;;;;;;4994309;28;20587;-56
2022/06/06 12:35:56;;;;;;;2.17;1.98;;;26.20;99.90;;;;;;4993971;28;20181;-55
2022/06/06 12:38:40;;;;;;;2.45;2.08;;;26.10;99.90;;;;;;4952682;29;20264;-55
2022/06/06 12:41:14;;;;;;;2.17;1.98;;;26.00;99.90;;;;;;4952706;29;20206;-57
2022/06/06 12:44:07;;;;;;;2.28;1.95;;;26.10;99.90;;;;;;4952421;29;20777;-58
2022/06/06 12:46:38;;;;;;;6.47;2.25;;;26.40;99.90;;;;;;4952757;29;20186;-55
2022/06/06 12:49:32;;;;;;;2.50;2.20;;;26.70;99.90;;;;;;4975949;28;20668;-56
2022/06/06 12:52:12;;;;;;;2.55;2.08;;;26.80;99.90;;;;;;4992409;28;20201;-57
2022/06/06 12:57:45;;;;;;;2.92;2.05;;;27.20;99.90;;;;;;4991220;28;20200;-53
2022/06/06 13:00:13;;;;;;;3.38;2.20;;;27.40;99.90;;;;;;4991240;28;20183;-55
2022/06/06 13:02:45;;;;;;;2.38;2.05;;;27.40;99.90;;;;;;4990661;28;20711;-48
2022/06/06 13:05:44;;;;;;;1.92;1.80;;;27.20;99.90;;;;;;4990588;28;20173;-51
2022/06/06 13:08:37;;;;;;;2.55;2.10;;;27.00;99.90;;;;;;4990791;28;20181;-51
2022/06/06 13:11:03;;;;;;;2.55;2.08;;;26.50;99.90;;;;;;4990700;28;20208;-51
2022/06/06 13:13:46;;;;;;;3.10;1.90;;;26.20;99.90;;;;;;4990515;28;20178;-52
2022/06/06 13:16:36;;;;;;;3.30;1.70;;;26.10;99.90;;;;;;5013017;28;20579;-56
2022/06/06 13:19:10;;;;;;;3.10;2.03;;;26.10;99.90;;;;;;5012839;28;20157;-50
2022/06/06 13:22:00;;;;;;;2.08;1.95;;;26.40;99.90;;;;;;5012786;28;20198;-49
2022/06/06 13:24:29;;;;;;;2.20;2.00;;;26.60;99.90;;;;;;5012269;28;20195;-54
2022/06/06 13:27:14;;;;;;;2.65;2.20;;;26.80;99.90;;;;;;5012738;28;20200;-50
2022/06/06 13:29:39;;;;;;;2.03;1.88;;;26.80;99.90;;;;;;5012482;28;20185;-52
2022/06/06 13:32:25;;;;;;;2.30;2.10;;;26.60;99.90;;;;;;5012583;28;20206;-54
2022/06/06 13:35:18;;;;;;;1.90;1.70;;;26.50;99.90;;;;;;5012278;28;20168;-51
2022/06/06 13:37:57;;;;;;;2.55;1.60;;;26.40;99.90;;;;;;5012495;28;20243;-51
2022/06/06 13:40:44;;;;;;;2.85;2.10;;;26.20;99.90;;;;;;5012339;28;20156;-51
2022/06/06 13:43:23;;;;;;;2.70;2.03;;;26.10;99.90;;;;;;5012274;28;20208;-54
2022/06/06 13:46:02;;;;;;;3.83;2.15;;;25.90;99.90;;;;;;5012402;28;20164;-52
2022/06/06 13:48:53;;;;;;;1.75;1.65;;;25.90;99.90;;;;;;5012331;28;20203;-55
2022/06/06 13:51:40;;;;;;;2.83;2.30;;;26.10;99.90;;;;;;5012247;28;20200;-52
2022/06/06 13:54:24;;;;;;;2.97;1.80;;;26.30;99.90;;;;;;5011911;28;20519;-55
2022/06/06 13:56:58;;;;;;;3.70;2.15;;;26.30;99.90;;;;;;5012238;28;20171;-50
2022/06/06 13:59:59;;;;;;;2.42;2.15;;;26.50;99.90;;;;;;5012116;28;20176;-50
2022/06/06 14:02:49;;;;;;;2.22;2.08;;;26.50;99.90;;;;;;5012065;28;20191;-57
2022/06/06 14:05:50;;;;;;;2.25;2.05;;;26.60;99.90;;;;;;5011875;28;20157;-49
2022/06/06 14:08:20;;;;;;;2.00;1.90;;;26.70;99.90;;;;;;5011800;28;20234;-55
2022/06/06 14:11:05;;;;;;;2.10;1.90;;;26.70;99.90;;;;;;5012188;28;20200;-55
2022/06/06 14:13:46;;;;;;;3.50;2.33;;;26.70;99.90;;;;;;5011284;28;20177;-51
2022/06/06 14:16:41;;;;;;;3.22;2.17;;;26.70;99.90;;;;;;5011817;28;20181;-52
2022/06/06 14:19:21;;;;;;;2.83;1.92;;;26.70;99.90;;;;;;5008244;28;20204;-51
2022/06/06 14:22:04;;;;;;;2.13;2.03;;;26.70;99.90;;;;;;5011643;28;20200;-49